sensor_id;sensor_type;location;lat;lon;timestamp;P1;durP1;ratioP1;P2;durP2;ratioP2
49722;SDS011;43484;43.608;1.458;2023-06-10T00:01:52;8.57;;;1.20;;
49722;SDS011;43484;43.608;1.458;2023-06-10T00:04:21;6.63;;;1.13;;
49722;SDS011;43484;43.608;1.458;2023-06-10T00:06:48;5.32;;;1.30;;
49722;SDS011;43484;43.608;1.458;2023-06-10T00:09:15;6.85;;;1.10;;
49722;SDS011;43484;43.608;1.458;2023-06-10T00:11:42;7.32;;;1.08;;
49722;SDS011;43484;43.608;1.458;2023-06-10T00:14:09;12.65;;;1.42;;
49722;SDS011;43484;43.608;1.458;2023-06-10T00:16:35;6.10;;;1.40;;
49722;SDS011;43484;43.608;1.458;2023-06-10T00:19:03;5.53;;;1.10;;
49722;SDS011;43484;43.608;1.458;2023-06-10T00:21:31;7.70;;;1.50;;
49722;SDS011;43484;43.608;1.458;2023-06-10T00:24:04;6.90;;;1.00;;
49722;SDS011;43484;43.608;1.458;2023-06-10T00:26:39;4.05;;;1.00;;
49722;SDS011;43484;43.608;1.458;2023-06-10T00:29:07;12.38;;;1.10;;
49722;SDS011;43484;43.608;1.458;2023-06-10T00:31:34;9.25;;;1.00;;
49722;SDS011;43484;43.608;1.458;2023-06-10T00:34:01;6.15;;;0.95;;
49722;SDS011;43484;43.608;1.458;2023-06-10T00:36:28;4.40;;;0.90;;
49722;SDS011;43484;43.608;1.458;2023-06-10T00:38:56;6.88;;;0.90;;
49722;SDS011;43484;43.608;1.458;2023-06-10T00:41:23;10.95;;;1.40;;
49722;SDS011;43484;43.608;1.458;2023-06-10T00:43:50;6.57;;;0.93;;
49722;SDS011;43484;43.608;1.458;2023-06-10T00:46:17;8.20;;;0.90;;
49722;SDS011;43484;43.608;1.458;2023-06-10T00:48:45;10.60;;;1.25;;
49722;SDS011;43484;43.608;1.458;2023-06-10T00:51:12;5.55;;;1.00;;
49722;SDS011;43484;43.608;1.458;2023-06-10T00:53:39;8.98;;;1.00;;
49722;SDS011;43484;43.608;1.458;2023-06-10T00:56:07;13.18;;;1.88;;
49722;SDS011;43484;43.608;1.458;2023-06-10T00:58:35;5.72;;;0.93;;
49722;SDS011;43484;43.608;1.458;2023-06-10T01:01:02;6.63;;;1.00;;
49722;SDS011;43484;43.608;1.458;2023-06-10T01:03:30;7.43;;;0.95;;
49722;SDS011;43484;43.608;1.458;2023-06-10T01:08:58;11.57;;;1.63;;
49722;SDS011;43484;43.608;1.458;2023-06-10T01:11:34;9.02;;;1.10;;
49722;SDS011;43484;43.608;1.458;2023-06-10T01:14:13;8.50;;;0.90;;
49722;SDS011;43484;43.608;1.458;2023-06-10T01:16:43;4.43;;;0.95;;
49722;SDS011;43484;43.608;1.458;2023-06-10T01:19:12;5.78;;;1.50;;
49722;SDS011;43484;43.608;1.458;2023-06-10T01:21:43;5.75;;;1.15;;
49722;SDS011;43484;43.608;1.458;2023-06-10T01:24:15;8.75;;;1.67;;
49722;SDS011;43484;43.608;1.458;2023-06-10T01:26:44;9.43;;;1.17;;
49722;SDS011;43484;43.608;1.458;2023-06-10T01:29:20;8.73;;;0.95;;
49722;SDS011;43484;43.608;1.458;2023-06-10T01:31:56;9.75;;;1.70;;
49722;SDS011;43484;43.608;1.458;2023-06-10T01:34:40;10.25;;;1.88;;
49722;SDS011;43484;43.608;1.458;2023-06-10T01:37:11;5.68;;;1.40;;
49722;SDS011;43484;43.608;1.458;2023-06-10T01:39:40;10.80;;;1.60;;
49722;SDS011;43484;43.608;1.458;2023-06-10T01:42:08;4.68;;;1.40;;
49722;SDS011;43484;43.608;1.458;2023-06-10T01:44:38;7.50;;;1.77;;
49722;SDS011;43484;43.608;1.458;2023-06-10T01:47:05;9.18;;;1.35;;
49722;SDS011;43484;43.608;1.458;2023-06-10T01:49:32;9.63;;;1.27;;
49722;SDS011;43484;43.608;1.458;2023-06-10T01:51:59;7.53;;;1.60;;
49722;SDS011;43484;43.608;1.458;2023-06-10T01:54:25;11.38;;;1.13;;
49722;SDS011;43484;43.608;1.458;2023-06-10T01:56:52;5.65;;;1.40;;
49722;SDS011;43484;43.608;1.458;2023-06-10T01:59:19;3.60;;;1.17;;
49722;SDS011;43484;43.608;1.458;2023-06-10T02:01:45;4.55;;;1.23;;
49722;SDS011;43484;43.608;1.458;2023-06-10T02:04:12;8.35;;;1.73;;
49722;SDS011;43484;43.608;1.458;2023-06-10T02:06:38;4.13;;;1.20;;
49722;SDS011;43484;43.608;1.458;2023-06-10T02:09:05;8.35;;;1.00;;
49722;SDS011;43484;43.608;1.458;2023-06-10T02:11:32;7.22;;;1.20;;
49722;SDS011;43484;43.608;1.458;2023-06-10T02:13:59;7.45;;;1.40;;
49722;SDS011;43484;43.608;1.458;2023-06-10T02:16:25;8.35;;;1.60;;
49722;SDS011;43484;43.608;1.458;2023-06-10T02:18:52;9.45;;;1.33;;
49722;SDS011;43484;43.608;1.458;2023-06-10T02:21:19;7.88;;;1.10;;
49722;SDS011;43484;43.608;1.458;2023-06-10T02:23:46;5.22;;;1.00;;
49722;SDS011;43484;43.608;1.458;2023-06-10T02:26:12;13.75;;;1.80;;
49722;SDS011;43484;43.608;1.458;2023-06-10T02:28:42;6.18;;;1.20;;
49722;SDS011;43484;43.608;1.458;2023-06-10T02:31:09;8.38;;;1.42;;
49722;SDS011;43484;43.608;1.458;2023-06-10T02:33:35;17.58;;;1.63;;
49722;SDS011;43484;43.608;1.458;2023-06-10T02:36:06;5.57;;;1.17;;
49722;SDS011;43484;43.608;1.458;2023-06-10T02:38:33;3.85;;;1.10;;
49722;SDS011;43484;43.608;1.458;2023-06-10T02:40:59;9.18;;;1.40;;
49722;SDS011;43484;43.608;1.458;2023-06-10T02:43:26;13.65;;;1.40;;
49722;SDS011;43484;43.608;1.458;2023-06-10T02:45:52;14.98;;;1.92;;
49722;SDS011;43484;43.608;1.458;2023-06-10T02:48:19;4.85;;;1.50;;
49722;SDS011;43484;43.608;1.458;2023-06-10T02:50:46;6.30;;;1.45;;
49722;SDS011;43484;43.608;1.458;2023-06-10T02:53:12;6.22;;;1.65;;
49722;SDS011;43484;43.608;1.458;2023-06-10T02:55:39;8.70;;;1.83;;
49722;SDS011;43484;43.608;1.458;2023-06-10T02:58:07;7.50;;;1.73;;
49722;SDS011;43484;43.608;1.458;2023-06-10T03:00:34;9.43;;;1.83;;
49722;SDS011;43484;43.608;1.458;2023-06-10T03:03:00;10.98;;;1.67;;
49722;SDS011;43484;43.608;1.458;2023-06-10T03:05:29;7.75;;;1.90;;
49722;SDS011;43484;43.608;1.458;2023-06-10T03:07:56;5.22;;;1.85;;
49722;SDS011;43484;43.608;1.458;2023-06-10T03:10:23;8.82;;;1.38;;
49722;SDS011;43484;43.608;1.458;2023-06-10T03:12:49;9.77;;;1.65;;
49722;SDS011;43484;43.608;1.458;2023-06-10T03:15:16;5.68;;;1.48;;
49722;SDS011;43484;43.608;1.458;2023-06-10T03:17:42;12.55;;;1.70;;
49722;SDS011;43484;43.608;1.458;2023-06-10T03:20:09;5.30;;;1.50;;
49722;SDS011;43484;43.608;1.458;2023-06-10T03:22:36;9.38;;;1.20;;
49722;SDS011;43484;43.608;1.458;2023-06-10T03:25:05;10.00;;;1.90;;
49722;SDS011;43484;43.608;1.458;2023-06-10T03:27:32;7.40;;;1.45;;
49722;SDS011;43484;43.608;1.458;2023-06-10T03:29:59;4.32;;;1.30;;
49722;SDS011;43484;43.608;1.458;2023-06-10T03:32:26;11.93;;;1.33;;
49722;SDS011;43484;43.608;1.458;2023-06-10T03:34:53;5.00;;;1.63;;
49722;SDS011;43484;43.608;1.458;2023-06-10T03:37:24;10.10;;;1.40;;
49722;SDS011;43484;43.608;1.458;2023-06-10T03:39:50;10.00;;;1.20;;
49722;SDS011;43484;43.608;1.458;2023-06-10T03:42:17;7.35;;;1.27;;
49722;SDS011;43484;43.608;1.458;2023-06-10T03:44:44;5.63;;;1.10;;
49722;SDS011;43484;43.608;1.458;2023-06-10T03:47:10;8.95;;;1.17;;
49722;SDS011;43484;43.608;1.458;2023-06-10T03:49:39;14.60;;;1.58;;
49722;SDS011;43484;43.608;1.458;2023-06-10T03:52:06;5.97;;;1.40;;
49722;SDS011;43484;43.608;1.458;2023-06-10T03:54:33;4.65;;;0.88;;
49722;SDS011;43484;43.608;1.458;2023-06-10T03:57:01;7.72;;;1.77;;
49722;SDS011;43484;43.608;1.458;2023-06-10T03:59:27;9.00;;;1.50;;
49722;SDS011;43484;43.608;1.458;2023-06-10T04:01:55;12.43;;;1.35;;
49722;SDS011;43484;43.608;1.458;2023-06-10T04:04:22;5.00;;;1.20;;
49722;SDS011;43484;43.608;1.458;2023-06-10T04:06:49;7.18;;;1.52;;
49722;SDS011;43484;43.608;1.458;2023-06-10T04:09:16;10.77;;;1.60;;
49722;SDS011;43484;43.608;1.458;2023-06-10T04:11:43;13.20;;;1.65;;
49722;SDS011;43484;43.608;1.458;2023-06-10T04:14:10;8.93;;;1.58;;
49722;SDS011;43484;43.608;1.458;2023-06-10T04:16:36;9.52;;;1.52;;
49722;SDS011;43484;43.608;1.458;2023-06-10T04:19:04;15.45;;;1.90;;
49722;SDS011;43484;43.608;1.458;2023-06-10T04:21:32;11.88;;;1.52;;
49722;SDS011;43484;43.608;1.458;2023-06-10T04:23:59;11.82;;;1.35;;
49722;SDS011;43484;43.608;1.458;2023-06-10T04:26:25;7.57;;;1.38;;
49722;SDS011;43484;43.608;1.458;2023-06-10T04:28:53;9.55;;;1.55;;
49722;SDS011;43484;43.608;1.458;2023-06-10T04:31:20;12.10;;;1.23;;
49722;SDS011;43484;43.608;1.458;2023-06-10T04:33:47;12.00;;;1.88;;
49722;SDS011;43484;43.608;1.458;2023-06-10T04:36:13;7.88;;;1.42;;
49722;SDS011;43484;43.608;1.458;2023-06-10T04:38:40;11.25;;;1.58;;
49722;SDS011;43484;43.608;1.458;2023-06-10T04:41:07;12.73;;;1.25;;
49722;SDS011;43484;43.608;1.458;2023-06-10T04:43:34;14.40;;;2.53;;
49722;SDS011;43484;43.608;1.458;2023-06-10T04:46:01;6.68;;;1.55;;
49722;SDS011;43484;43.608;1.458;2023-06-10T04:48:28;10.25;;;1.50;;
49722;SDS011;43484;43.608;1.458;2023-06-10T04:50:55;14.65;;;2.15;;
49722;SDS011;43484;43.608;1.458;2023-06-10T04:53:22;3.55;;;1.00;;
49722;SDS011;43484;43.608;1.458;2023-06-10T04:55:49;12.48;;;1.58;;
49722;SDS011;43484;43.608;1.458;2023-06-10T04:58:16;6.22;;;1.27;;
49722;SDS011;43484;43.608;1.458;2023-06-10T05:00:42;10.63;;;1.85;;
49722;SDS011;43484;43.608;1.458;2023-06-10T05:03:10;4.70;;;1.50;;
49722;SDS011;43484;43.608;1.458;2023-06-10T05:05:37;6.90;;;1.52;;
49722;SDS011;43484;43.608;1.458;2023-06-10T05:08:03;10.55;;;1.55;;
49722;SDS011;43484;43.608;1.458;2023-06-10T05:10:33;8.90;;;1.70;;
49722;SDS011;43484;43.608;1.458;2023-06-10T05:13:00;8.25;;;2.20;;
49722;SDS011;43484;43.608;1.458;2023-06-10T05:15:27;9.98;;;2.05;;
49722;SDS011;43484;43.608;1.458;2023-06-10T05:17:56;17.08;;;2.45;;
49722;SDS011;43484;43.608;1.458;2023-06-10T05:20:23;11.20;;;1.77;;
49722;SDS011;43484;43.608;1.458;2023-06-10T05:22:51;13.07;;;2.35;;
49722;SDS011;43484;43.608;1.458;2023-06-10T05:25:18;5.63;;;1.48;;
49722;SDS011;43484;43.608;1.458;2023-06-10T05:27:44;7.60;;;1.48;;
49722;SDS011;43484;43.608;1.458;2023-06-10T05:30:11;5.60;;;1.30;;
49722;SDS011;43484;43.608;1.458;2023-06-10T05:32:38;7.43;;;1.48;;
49722;SDS011;43484;43.608;1.458;2023-06-10T05:35:05;9.15;;;1.67;;
49722;SDS011;43484;43.608;1.458;2023-06-10T05:37:33;8.43;;;1.63;;
49722;SDS011;43484;43.608;1.458;2023-06-10T05:40:03;7.15;;;1.20;;
49722;SDS011;43484;43.608;1.458;2023-06-10T05:42:30;11.45;;;1.52;;
49722;SDS011;43484;43.608;1.458;2023-06-10T05:44:57;7.22;;;1.52;;
49722;SDS011;43484;43.608;1.458;2023-06-10T05:47:24;10.05;;;2.53;;
49722;SDS011;43484;43.608;1.458;2023-06-10T05:49:50;10.45;;;1.13;;
49722;SDS011;43484;43.608;1.458;2023-06-10T05:52:18;7.00;;;1.27;;
49722;SDS011;43484;43.608;1.458;2023-06-10T05:54:45;9.02;;;1.73;;
49722;SDS011;43484;43.608;1.458;2023-06-10T05:57:11;7.63;;;1.60;;
49722;SDS011;43484;43.608;1.458;2023-06-10T05:59:39;12.43;;;1.38;;
49722;SDS011;43484;43.608;1.458;2023-06-10T06:02:05;4.55;;;1.65;;
49722;SDS011;43484;43.608;1.458;2023-06-10T06:04:33;7.80;;;1.27;;
49722;SDS011;43484;43.608;1.458;2023-06-10T06:07:00;9.55;;;1.15;;
49722;SDS011;43484;43.608;1.458;2023-06-10T06:09:27;8.07;;;1.45;;
49722;SDS011;43484;43.608;1.458;2023-06-10T06:11:53;4.75;;;1.20;;
49722;SDS011;43484;43.608;1.458;2023-06-10T06:14:20;12.10;;;1.60;;
49722;SDS011;43484;43.608;1.458;2023-06-10T06:16:46;12.65;;;1.92;;
49722;SDS011;43484;43.608;1.458;2023-06-10T06:19:13;8.48;;;1.38;;
49722;SDS011;43484;43.608;1.458;2023-06-10T06:21:40;6.75;;;1.35;;
49722;SDS011;43484;43.608;1.458;2023-06-10T06:24:07;7.63;;;1.30;;
49722;SDS011;43484;43.608;1.458;2023-06-10T06:26:34;5.13;;;1.63;;
49722;SDS011;43484;43.608;1.458;2023-06-10T06:29:00;7.75;;;1.48;;
49722;SDS011;43484;43.608;1.458;2023-06-10T06:31:27;8.20;;;1.27;;
49722;SDS011;43484;43.608;1.458;2023-06-10T06:33:54;9.73;;;1.83;;
49722;SDS011;43484;43.608;1.458;2023-06-10T06:36:20;5.40;;;1.55;;
49722;SDS011;43484;43.608;1.458;2023-06-10T06:38:47;8.35;;;1.40;;
49722;SDS011;43484;43.608;1.458;2023-06-10T06:41:13;10.40;;;1.80;;
49722;SDS011;43484;43.608;1.458;2023-06-10T06:43:40;8.43;;;1.65;;
49722;SDS011;43484;43.608;1.458;2023-06-10T06:46:08;3.08;;;1.27;;
49722;SDS011;43484;43.608;1.458;2023-06-10T06:48:35;7.30;;;1.17;;
49722;SDS011;43484;43.608;1.458;2023-06-10T06:51:02;7.10;;;1.90;;
49722;SDS011;43484;43.608;1.458;2023-06-10T06:53:29;6.45;;;1.60;;
49722;SDS011;43484;43.608;1.458;2023-06-10T06:55:57;5.75;;;1.30;;
49722;SDS011;43484;43.608;1.458;2023-06-10T06:58:24;6.43;;;1.60;;
49722;SDS011;43484;43.608;1.458;2023-06-10T07:00:50;16.10;;;2.20;;
49722;SDS011;43484;43.608;1.458;2023-06-10T07:03:17;14.77;;;1.63;;
49722;SDS011;43484;43.608;1.458;2023-06-10T07:05:44;7.60;;;1.30;;
49722;SDS011;43484;43.608;1.458;2023-06-10T07:08:10;8.85;;;1.40;;
49722;SDS011;43484;43.608;1.458;2023-06-10T07:10:38;5.60;;;1.30;;
49722;SDS011;43484;43.608;1.458;2023-06-10T07:13:04;4.07;;;1.40;;
49722;SDS011;43484;43.608;1.458;2023-06-10T07:15:32;9.18;;;1.40;;
49722;SDS011;43484;43.608;1.458;2023-06-10T07:17:59;4.28;;;1.27;;
49722;SDS011;43484;43.608;1.458;2023-06-10T07:20:26;6.35;;;1.27;;
49722;SDS011;43484;43.608;1.458;2023-06-10T07:22:53;5.30;;;1.00;;
49722;SDS011;43484;43.608;1.458;2023-06-10T07:25:20;9.73;;;1.50;;
49722;SDS011;43484;43.608;1.458;2023-06-10T07:27:46;7.05;;;1.10;;
49722;SDS011;43484;43.608;1.458;2023-06-10T07:30:13;7.22;;;1.55;;
49722;SDS011;43484;43.608;1.458;2023-06-10T07:32:39;4.15;;;1.23;;
49722;SDS011;43484;43.608;1.458;2023-06-10T07:35:08;6.25;;;1.25;;
49722;SDS011;43484;43.608;1.458;2023-06-10T07:37:36;8.63;;;1.23;;
49722;SDS011;43484;43.608;1.458;2023-06-10T07:40:03;6.13;;;1.23;;
49722;SDS011;43484;43.608;1.458;2023-06-10T07:42:37;5.50;;;1.35;;
49722;SDS011;43484;43.608;1.458;2023-06-10T07:45:04;8.07;;;1.38;;
49722;SDS011;43484;43.608;1.458;2023-06-10T07:47:32;5.97;;;1.40;;
49722;SDS011;43484;43.608;1.458;2023-06-10T07:50:01;6.25;;;1.48;;
49722;SDS011;43484;43.608;1.458;2023-06-10T07:52:27;12.02;;;2.13;;
49722;SDS011;43484;43.608;1.458;2023-06-10T07:54:55;7.72;;;1.70;;
49722;SDS011;43484;43.608;1.458;2023-06-10T07:57:21;4.78;;;1.30;;
49722;SDS011;43484;43.608;1.458;2023-06-10T07:59:48;7.95;;;1.63;;
49722;SDS011;43484;43.608;1.458;2023-06-10T08:02:15;3.80;;;1.67;;
49722;SDS011;43484;43.608;1.458;2023-06-10T08:04:42;11.05;;;1.65;;
49722;SDS011;43484;43.608;1.458;2023-06-10T08:07:08;4.47;;;1.55;;
49722;SDS011;43484;43.608;1.458;2023-06-10T08:09:35;8.32;;;1.98;;
49722;SDS011;43484;43.608;1.458;2023-06-10T08:12:02;3.67;;;1.23;;
49722;SDS011;43484;43.608;1.458;2023-06-10T08:14:29;4.70;;;1.70;;
49722;SDS011;43484;43.608;1.458;2023-06-10T08:16:56;5.13;;;1.13;;
49722;SDS011;43484;43.608;1.458;2023-06-10T08:19:22;7.95;;;1.20;;
49722;SDS011;43484;43.608;1.458;2023-06-10T08:21:49;5.30;;;1.17;;
49722;SDS011;43484;43.608;1.458;2023-06-10T08:24:16;3.55;;;1.23;;
49722;SDS011;43484;43.608;1.458;2023-06-10T08:26:45;2.42;;;1.30;;
49722;SDS011;43484;43.608;1.458;2023-06-10T08:29:12;4.80;;;1.17;;
49722;SDS011;43484;43.608;1.458;2023-06-10T08:31:43;9.95;;;1.55;;
49722;SDS011;43484;43.608;1.458;2023-06-10T08:34:10;4.72;;;1.20;;
49722;SDS011;43484;43.608;1.458;2023-06-10T08:36:38;2.55;;;1.13;;
49722;SDS011;43484;43.608;1.458;2023-06-10T08:39:04;4.22;;;1.38;;
49722;SDS011;43484;43.608;1.458;2023-06-10T08:41:33;8.05;;;1.40;;
49722;SDS011;43484;43.608;1.458;2023-06-10T08:44:04;5.53;;;1.10;;
49722;SDS011;43484;43.608;1.458;2023-06-10T08:46:39;7.00;;;1.08;;
49722;SDS011;43484;43.608;1.458;2023-06-10T08:49:11;3.50;;;0.80;;
49722;SDS011;43484;43.608;1.458;2023-06-10T08:51:44;5.82;;;1.02;;
49722;SDS011;43484;43.608;1.458;2023-06-10T08:54:14;6.60;;;1.30;;
49722;SDS011;43484;43.608;1.458;2023-06-10T08:56:46;5.25;;;1.58;;
49722;SDS011;43484;43.608;1.458;2023-06-10T08:59:16;6.03;;;1.27;;
49722;SDS011;43484;43.608;1.458;2023-06-10T09:01:43;4.80;;;1.08;;
49722;SDS011;43484;43.608;1.458;2023-06-10T09:04:11;3.80;;;1.08;;
49722;SDS011;43484;43.608;1.458;2023-06-10T09:06:38;2.97;;;0.98;;
49722;SDS011;43484;43.608;1.458;2023-06-10T09:09:06;2.25;;;0.80;;
49722;SDS011;43484;43.608;1.458;2023-06-10T09:11:33;3.15;;;1.02;;
49722;SDS011;43484;43.608;1.458;2023-06-10T09:14:00;4.35;;;1.00;;
49722;SDS011;43484;43.608;1.458;2023-06-10T09:16:27;7.28;;;0.90;;
49722;SDS011;43484;43.608;1.458;2023-06-10T09:18:54;6.18;;;1.10;;
49722;SDS011;43484;43.608;1.458;2023-06-10T09:21:22;2.05;;;1.08;;
49722;SDS011;43484;43.608;1.458;2023-06-10T09:23:49;2.55;;;1.00;;
49722;SDS011;43484;43.608;1.458;2023-06-10T09:26:17;3.15;;;1.05;;
49722;SDS011;43484;43.608;1.458;2023-06-10T09:28:44;2.63;;;0.70;;
49722;SDS011;43484;43.608;1.458;2023-06-10T09:31:14;5.88;;;0.90;;
49722;SDS011;43484;43.608;1.458;2023-06-10T09:33:44;4.70;;;1.00;;
49722;SDS011;43484;43.608;1.458;2023-06-10T09:36:11;3.00;;;0.95;;
49722;SDS011;43484;43.608;1.458;2023-06-10T09:38:49;2.45;;;0.80;;
49722;SDS011;43484;43.608;1.458;2023-06-10T09:41:17;4.72;;;1.02;;
49722;SDS011;43484;43.608;1.458;2023-06-10T09:43:44;4.88;;;1.20;;
49722;SDS011;43484;43.608;1.458;2023-06-10T09:46:19;2.33;;;0.90;;
49722;SDS011;43484;43.608;1.458;2023-06-10T09:48:46;2.83;;;0.70;;
49722;SDS011;43484;43.608;1.458;2023-06-10T09:51:14;2.67;;;1.00;;
49722;SDS011;43484;43.608;1.458;2023-06-10T09:53:47;3.05;;;0.68;;
49722;SDS011;43484;43.608;1.458;2023-06-10T09:56:15;5.47;;;1.20;;
49722;SDS011;43484;43.608;1.458;2023-06-10T09:58:42;1.77;;;0.98;;
49722;SDS011;43484;43.608;1.458;2023-06-10T10:01:10;4.38;;;1.20;;
49722;SDS011;43484;43.608;1.458;2023-06-10T10:03:45;6.07;;;0.90;;
49722;SDS011;43484;43.608;1.458;2023-06-10T10:06:18;5.32;;;1.10;;
49722;SDS011;43484;43.608;1.458;2023-06-10T10:08:47;1.00;;;0.73;;
49722;SDS011;43484;43.608;1.458;2023-06-10T10:11:20;3.40;;;0.90;;
49722;SDS011;43484;43.608;1.458;2023-06-10T10:13:53;4.13;;;0.80;;
49722;SDS011;43484;43.608;1.458;2023-06-10T10:16:21;2.50;;;0.60;;
49722;SDS011;43484;43.608;1.458;2023-06-10T10:18:55;4.25;;;1.10;;
49722;SDS011;43484;43.608;1.458;2023-06-10T10:21:29;3.30;;;0.63;;
49722;SDS011;43484;43.608;1.458;2023-06-10T10:24:05;2.83;;;0.75;;
49722;SDS011;43484;43.608;1.458;2023-06-10T10:26:39;3.38;;;0.80;;
49722;SDS011;43484;43.608;1.458;2023-06-10T10:31:51;1.88;;;1.20;;
49722;SDS011;43484;43.608;1.458;2023-06-10T10:34:24;1.67;;;0.82;;
49722;SDS011;43484;43.608;1.458;2023-06-10T10:37:01;5.03;;;0.70;;
49722;SDS011;43484;43.608;1.458;2023-06-10T10:39:28;2.72;;;1.05;;
49722;SDS011;43484;43.608;1.458;2023-06-10T10:41:56;1.80;;;1.00;;
49722;SDS011;43484;43.608;1.458;2023-06-10T10:44:23;2.28;;;0.70;;
49722;SDS011;43484;43.608;1.458;2023-06-10T10:46:51;4.57;;;1.02;;
49722;SDS011;43484;43.608;1.458;2023-06-10T10:49:20;2.65;;;0.90;;
49722;SDS011;43484;43.608;1.458;2023-06-10T10:52:10;3.70;;;1.00;;
49722;SDS011;43484;43.608;1.458;2023-06-10T10:54:39;2.15;;;0.70;;
49722;SDS011;43484;43.608;1.458;2023-06-10T10:57:14;1.65;;;0.70;;
49722;SDS011;43484;43.608;1.458;2023-06-10T11:05:10;1.35;;;0.65;;
49722;SDS011;43484;43.608;1.458;2023-06-10T11:07:40;4.18;;;0.60;;
49722;SDS011;43484;43.608;1.458;2023-06-10T11:10:19;3.33;;;0.75;;
49722;SDS011;43484;43.608;1.458;2023-06-10T11:12:56;8.30;;;0.70;;
49722;SDS011;43484;43.608;1.458;2023-06-10T11:15:23;3.78;;;0.60;;
49722;SDS011;43484;43.608;1.458;2023-06-10T11:29:04;3.38;;;0.52;;
49722;SDS011;43484;43.608;1.458;2023-06-10T11:34:06;0.60;;;0.50;;
49722;SDS011;43484;43.608;1.458;2023-06-10T11:36:36;7.78;;;0.60;;
49722;SDS011;43484;43.608;1.458;2023-06-10T11:39:06;1.35;;;0.50;;
49722;SDS011;43484;43.608;1.458;2023-06-10T11:41:33;0.77;;;0.47;;
49722;SDS011;43484;43.608;1.458;2023-06-10T11:44:07;1.38;;;0.50;;
49722;SDS011;43484;43.608;1.458;2023-06-10T11:46:34;2.13;;;0.60;;
49722;SDS011;43484;43.608;1.458;2023-06-10T11:49:02;1.05;;;0.45;;
49722;SDS011;43484;43.608;1.458;2023-06-10T11:51:39;0.93;;;0.50;;
49722;SDS011;43484;43.608;1.458;2023-06-10T11:54:10;1.48;;;0.60;;
49722;SDS011;43484;43.608;1.458;2023-06-10T11:56:37;3.80;;;0.40;;
49722;SDS011;43484;43.608;1.458;2023-06-10T11:59:04;3.97;;;0.45;;
49722;SDS011;43484;43.608;1.458;2023-06-10T12:01:35;0.60;;;0.43;;
49722;SDS011;43484;43.608;1.458;2023-06-10T12:04:08;1.25;;;0.40;;
49722;SDS011;43484;43.608;1.458;2023-06-10T12:06:45;0.60;;;0.40;;
49722;SDS011;43484;43.608;1.458;2023-06-10T12:09:15;0.80;;;0.40;;
49722;SDS011;43484;43.608;1.458;2023-06-10T12:11:54;0.60;;;0.40;;
49722;SDS011;43484;43.608;1.458;2023-06-10T12:17:16;1.17;;;0.47;;
49722;SDS011;43484;43.608;1.458;2023-06-10T12:19:43;0.82;;;0.45;;
49722;SDS011;43484;43.608;1.458;2023-06-10T12:22:10;1.55;;;0.45;;
49722;SDS011;43484;43.608;1.458;2023-06-10T12:24:56;0.70;;;0.50;;
49722;SDS011;43484;43.608;1.458;2023-06-10T12:27:28;1.30;;;0.40;;
49722;SDS011;43484;43.608;1.458;2023-06-10T12:29:56;1.17;;;0.40;;
49722;SDS011;43484;43.608;1.458;2023-06-10T12:32:41;1.00;;;0.47;;
49722;SDS011;43484;43.608;1.458;2023-06-10T12:35:22;0.80;;;0.45;;
49722;SDS011;43484;43.608;1.458;2023-06-10T12:38:02;0.60;;;0.40;;
49722;SDS011;43484;43.608;1.458;2023-06-10T12:40:33;0.45;;;0.40;;
49722;SDS011;43484;43.608;1.458;2023-06-10T12:43:03;0.80;;;0.52;;
49722;SDS011;43484;43.608;1.458;2023-06-10T12:45:31;1.35;;;0.43;;
49722;SDS011;43484;43.608;1.458;2023-06-10T12:48:06;1.50;;;0.50;;
49722;SDS011;43484;43.608;1.458;2023-06-10T12:50:37;1.65;;;0.35;;
49722;SDS011;43484;43.608;1.458;2023-06-10T12:53:08;3.65;;;0.50;;
49722;SDS011;43484;43.608;1.458;2023-06-10T12:55:37;1.42;;;0.60;;
49722;SDS011;43484;43.608;1.458;2023-06-10T12:58:05;0.93;;;0.70;;
49722;SDS011;43484;43.608;1.458;2023-06-10T13:00:32;2.28;;;0.57;;
49722;SDS011;43484;43.608;1.458;2023-06-10T13:03:01;2.38;;;0.40;;
49722;SDS011;43484;43.608;1.458;2023-06-10T13:05:28;1.42;;;0.70;;
49722;SDS011;43484;43.608;1.458;2023-06-10T13:07:55;2.50;;;0.55;;
49722;SDS011;43484;43.608;1.458;2023-06-10T13:10:22;0.77;;;0.70;;
49722;SDS011;43484;43.608;1.458;2023-06-10T13:12:51;2.40;;;0.45;;
49722;SDS011;43484;43.608;1.458;2023-06-10T13:15:18;1.35;;;0.60;;
49722;SDS011;43484;43.608;1.458;2023-06-10T13:17:45;2.33;;;0.68;;
49722;SDS011;43484;43.608;1.458;2023-06-10T13:20:16;2.30;;;0.63;;
49722;SDS011;43484;43.608;1.458;2023-06-10T13:22:43;2.22;;;0.60;;
49722;SDS011;43484;43.608;1.458;2023-06-10T13:25:10;1.25;;;0.55;;
49722;SDS011;43484;43.608;1.458;2023-06-10T13:27:38;2.40;;;0.50;;
49722;SDS011;43484;43.608;1.458;2023-06-10T13:30:06;0.85;;;0.40;;
49722;SDS011;43484;43.608;1.458;2023-06-10T13:32:34;1.45;;;0.70;;
49722;SDS011;43484;43.608;1.458;2023-06-10T13:35:02;2.78;;;0.60;;
49722;SDS011;43484;43.608;1.458;2023-06-10T13:37:30;0.50;;;0.50;;
49722;SDS011;43484;43.608;1.458;2023-06-10T13:39:57;6.38;;;0.50;;
49722;SDS011;43484;43.608;1.458;2023-06-10T13:42:24;0.80;;;0.45;;
49722;SDS011;43484;43.608;1.458;2023-06-10T13:44:52;2.67;;;0.50;;
49722;SDS011;43484;43.608;1.458;2023-06-10T13:47:19;1.33;;;0.52;;
49722;SDS011;43484;43.608;1.458;2023-06-10T13:49:47;3.10;;;0.45;;
49722;SDS011;43484;43.608;1.458;2023-06-10T13:52:13;2.33;;;0.60;;
49722;SDS011;43484;43.608;1.458;2023-06-10T13:54:40;2.05;;;0.50;;
49722;SDS011;43484;43.608;1.458;2023-06-10T13:57:07;1.83;;;0.40;;
49722;SDS011;43484;43.608;1.458;2023-06-10T13:59:36;2.85;;;0.52;;
49722;SDS011;43484;43.608;1.458;2023-06-10T14:02:03;2.20;;;0.60;;
49722;SDS011;43484;43.608;1.458;2023-06-10T14:04:30;1.10;;;0.47;;
49722;SDS011;43484;43.608;1.458;2023-06-10T14:06:57;0.73;;;0.30;;
49722;SDS011;43484;43.608;1.458;2023-06-10T14:09:24;2.65;;;0.40;;
49722;SDS011;43484;43.608;1.458;2023-06-10T14:11:50;0.40;;;0.40;;
49722;SDS011;43484;43.608;1.458;2023-06-10T14:14:18;1.58;;;0.40;;
49722;SDS011;43484;43.608;1.458;2023-06-10T14:16:45;1.73;;;0.40;;
49722;SDS011;43484;43.608;1.458;2023-06-10T14:19:12;1.85;;;0.40;;
49722;SDS011;43484;43.608;1.458;2023-06-10T14:21:39;0.73;;;0.30;;
49722;SDS011;43484;43.608;1.458;2023-06-10T14:24:06;0.60;;;0.40;;
49722;SDS011;43484;43.608;1.458;2023-06-10T14:26:33;0.68;;;0.40;;
49722;SDS011;43484;43.608;1.458;2023-06-10T14:28:59;4.90;;;0.40;;
49722;SDS011;43484;43.608;1.458;2023-06-10T14:31:26;0.55;;;0.40;;
49722;SDS011;43484;43.608;1.458;2023-06-10T14:33:52;0.77;;;0.40;;
49722;SDS011;43484;43.608;1.458;2023-06-10T14:36:19;1.10;;;0.40;;
49722;SDS011;43484;43.608;1.458;2023-06-10T14:38:46;0.82;;;0.30;;
49722;SDS011;43484;43.608;1.458;2023-06-10T14:41:13;1.10;;;0.43;;
49722;SDS011;43484;43.608;1.458;2023-06-10T14:43:39;1.80;;;0.60;;
49722;SDS011;43484;43.608;1.458;2023-06-10T14:46:06;5.35;;;0.30;;
49722;SDS011;43484;43.608;1.458;2023-06-10T14:48:33;0.85;;;0.40;;
49722;SDS011;43484;43.608;1.458;2023-06-10T14:50:59;0.40;;;0.30;;
49722;SDS011;43484;43.608;1.458;2023-06-10T14:53:26;1.00;;;0.40;;
49722;SDS011;43484;43.608;1.458;2023-06-10T14:55:53;1.10;;;0.50;;
49722;SDS011;43484;43.608;1.458;2023-06-10T14:58:23;1.40;;;0.40;;
49722;SDS011;43484;43.608;1.458;2023-06-10T15:00:50;1.17;;;0.57;;
49722;SDS011;43484;43.608;1.458;2023-06-10T15:03:17;1.38;;;0.50;;
49722;SDS011;43484;43.608;1.458;2023-06-10T15:05:45;0.73;;;0.40;;
49722;SDS011;43484;43.608;1.458;2023-06-10T15:08:12;0.40;;;0.40;;
49722;SDS011;43484;43.608;1.458;2023-06-10T15:10:38;0.60;;;0.45;;
49722;SDS011;43484;43.608;1.458;2023-06-10T15:13:05;1.85;;;0.38;;
49722;SDS011;43484;43.608;1.458;2023-06-10T15:15:32;2.42;;;0.40;;
49722;SDS011;43484;43.608;1.458;2023-06-10T15:17:59;1.55;;;0.40;;
49722;SDS011;43484;43.608;1.458;2023-06-10T15:20:26;0.57;;;0.32;;